Time;durP1;ratioP1;P1;durP2;ratioP2;P2;SDS_P1;SDS_P2;PMS_P1;PMS_P2;Temp;Humidity;BMP_temperature;BMP_pressure;BME280_temperature;BME280_humidity;BME280_pressure;Samples;Min_cycle;Max_cycle;Signal;HPM_P1;HPM_P2
2022/10/17 00:02:23;;;;;;;;;12.33;11.00;;;;;19.68;73.15;100939.44;5115787;27;51110;-69
2022/10/17 00:04:48;;;;;;;;;10.33;9.67;;;;;19.79;73.08;100971.91;5099244;27;45557;-69
2022/10/17 00:07:13;;;;;;;;;8.67;7.33;;;;;19.69;73.23;100962.91;5109564;27;46090;-69
2022/10/17 00:09:42;;;;;;;;;7.00;7.00;;;;;19.80;73.27;100984.56;5109145;27;56974;-69
2022/10/17 00:12:07;;;;;;;;;7.67;7.00;;;;;19.78;73.39;100980.03;5103976;27;45443;-69
2022/10/17 00:14:33;;;;;;;;;8.67;8.67;;;;;19.67;73.56;100962.03;5104888;27;45439;-69
2022/10/17 00:16:59;;;;;;;;;9.67;9.67;;;;;19.40;73.11;100916.16;5118437;27;45433;-69
2022/10/17 00:19:24;;;;;;;;;8.33;8.33;;;;;19.68;72.98;100966.53;5096926;27;45548;-69
2022/10/17 00:21:49;;;;;;;;;9.33;8.67;;;;;19.79;73.07;100987.28;5102620;27;45394;-69
2022/10/17 00:24:15;;;;;;;;;10.67;8.33;;;;;19.78;73.01;100985.47;5102869;27;45561;-69
2022/10/17 00:26:40;;;;;;;;;12.33;8.67;;;;;19.78;73.36;100985.47;5095189;27;46151;-69
2022/10/17 00:29:05;;;;;;;;;12.00;12.00;;;;;19.78;73.40;100982.75;5101738;27;59753;-68
2022/10/17 00:31:31;;;;;;;;;11.00;10.33;;;;;19.55;72.76;100944.94;5095265;27;50067;-69
2022/10/17 00:33:56;;;;;;;;;9.33;9.00;;;;;19.78;73.25;100990.88;5106537;27;45144;-69
2022/10/17 00:36:24;;;;;;;;;10.00;7.00;;;;;19.76;73.23;100988.19;5106070;27;64086;-69
2022/10/17 00:38:55;;;;;;;;;10.33;8.00;;;;;19.76;73.00;100988.19;5092176;27;46152;-69
2022/10/17 00:41:24;;;;;;;;;8.00;6.33;;;;;19.69;73.00;100990.00;5097638;27;45518;-69
2022/10/17 00:43:55;;;;;;;;;8.67;8.67;;;;;19.74;72.84;100995.41;5094949;27;45515;-68
2022/10/17 00:46:22;;;;;;;;;7.33;7.33;;;;;19.73;73.06;100999.00;5097914;27;46302;-69
2022/10/17 00:48:49;;;;;;;;;6.00;6.00;;;;;19.73;72.95;101008.97;5101715;27;45449;-69
2022/10/17 00:51:19;;;;;;;;;6.67;6.67;;;;;19.72;73.21;101007.19;5108295;27;45587;-68
2022/10/17 00:53:44;;;;;;;;;9.33;9.33;;;;;19.65;73.00;100982.81;5092963;27;45465;-69
2022/10/17 00:56:10;;;;;;;;;10.67;8.67;;;;;19.73;72.92;100990.88;5094122;27;46113;-69
2022/10/17 00:58:35;;;;;;;;;7.67;7.00;;;;;19.55;72.97;100948.56;5087965;27;45749;-69
2022/10/17 01:01:01;;;;;;;;;8.00;8.00;;;;;19.64;72.46;100970.16;5093117;27;46065;-69
2022/10/17 01:03:27;;;;;;;;;11.33;9.00;;;;;19.62;72.65;100963.88;5101664;27;45419;-68
2022/10/17 01:05:52;;;;;;;;;10.33;10.00;;;;;19.74;72.48;100989.97;5113468;27;47233;-69
2022/10/17 01:08:17;;;;;;;;;7.00;6.00;;;;;19.45;72.29;100952.25;5117383;27;51831;-69
2022/10/17 01:11:15;;;;;;;;;8.67;7.00;;;;;19.74;72.59;100994.50;5121526;27;44929;-69
2022/10/17 01:14:06;;;;;;;;;9.00;8.67;;;;;19.73;72.55;100992.69;5104609;27;45294;-70
2022/10/17 01:16:42;;;;;;;;;8.33;8.33;;;;;19.75;72.13;100985.44;5110692;27;46099;-69
2022/10/17 01:19:09;;;;;;;;;7.00;7.00;;;;;19.74;71.65;100994.50;5095367;27;45430;-69
2022/10/17 01:21:47;;;;;;;;;8.00;8.00;;;;;19.73;72.05;100992.69;5098661;27;45402;-69
2022/10/17 01:24:12;;;;;;;;;7.00;7.00;;;;;19.73;71.81;100998.13;5106237;27;45102;-69
2022/10/17 01:26:58;;;;;;;;;5.33;5.00;;;;;19.72;71.81;100996.34;5098760;27;45652;-69
2022/10/17 01:29:46;;;;;;;;;9.33;8.33;;;;;19.69;71.86;101003.56;5094650;27;45449;-69
2022/10/17 01:32:44;;;;;;;;;10.67;7.33;;;;;19.68;71.72;101009.91;5095248;27;45459;-69
2022/10/17 01:35:24;;;;;;;;;10.67;7.67;;;;;19.51;71.33;100991.03;5106774;27;45343;-69
2022/10/17 01:37:58;;;;;;;;;6.00;6.00;;;;;19.66;71.39;101014.41;5095253;27;47518;-69
2022/10/17 01:40:49;;;;;;;;;7.00;7.00;;;;;19.55;71.44;100991.03;5105663;27;45301;-69
2022/10/17 01:43:17;;;;;;;;;12.33;9.00;;;;;19.63;71.14;101011.75;5099108;27;45461;-70
2022/10/17 01:45:52;;;;;;;;;7.00;6.00;;;;;19.65;70.99;101018.06;5098141;27;45524;-69
2022/10/17 01:48:23;;;;;;;;;7.67;7.67;;;;;19.63;70.67;101011.75;5091294;27;46158;-69
2022/10/17 01:50:59;;;;;;;;;11.50;6.00;;;;;19.62;70.63;101019.91;5114072;27;44977;-69
2022/10/17 01:53:31;;;;;;;;;8.33;6.67;;;;;19.66;70.28;101025.25;5112400;27;45432;-69
2022/10/17 01:56:01;;;;;;;;;7.00;7.00;;;;;19.65;70.21;101022.56;5109741;27;45139;-69
2022/10/17 01:58:38;;;;;;;;;7.33;7.00;;;;;19.64;69.62;101029.81;5112232;27;45652;-69
2022/10/17 02:01:07;;;;;;;;;7.67;7.33;;;;;19.52;69.79;101000.97;5121926;27;45218;-68
2022/10/17 02:03:34;;;;;;;;;7.33;5.67;;;;;19.60;69.66;101027.13;5105102;27;45594;-69
2022/10/17 02:05:59;;;;;;;;;5.00;5.00;;;;;19.41;69.58;101001.97;5107433;27;45161;-69
2022/10/17 02:08:27;;;;;;;;;7.00;5.00;;;;;19.57;69.43;101019.94;5122983;27;45300;-69
2022/10/17 02:11:04;;;;;;;;;5.67;5.67;;;;;19.48;69.64;101004.59;5122949;27;45214;-69
2022/10/17 02:13:47;;;;;;;;;4.67;4.33;;;;;19.60;69.19;101019.91;5117990;27;45002;-69
2022/10/17 02:16:40;;;;;;;;;7.33;6.33;;;;;19.61;69.04;101018.97;5104413;27;45568;-69
2022/10/17 02:19:43;;;;;;;;;7.00;6.33;;;;;19.62;69.38;101031.63;5106654;27;45562;-69
2022/10/17 02:22:36;;;;;;;;;6.67;5.00;;;;;19.62;69.19;101020.78;5103971;27;45459;-68
2022/10/17 02:25:13;;;;;;;;;2.00;1.00;;;;;19.62;69.00;101018.09;5104971;27;45630;-69
2022/10/17 02:28:08;;;;;;;;;6.67;5.00;;;;;19.59;69.18;101011.78;5110564;27;45226;-69
2022/10/17 02:30:52;;;;;;;;;5.67;5.33;;;;;19.58;69.36;101007.25;5082047;27;45677;-69
2022/10/17 02:33:27;;;;;;;;;6.00;6.00;;;;;19.59;69.39;101004.53;5116992;27;45463;-69
2022/10/17 02:35:56;;;;;;;;;10.00;7.67;;;;;19.55;69.11;101002.78;5104746;27;45725;-69
2022/10/17 02:38:24;;;;;;;;;6.33;5.33;;;;;19.43;69.08;100973.03;5096650;27;45314;-68
2022/10/17 02:40:52;;;;;;;;;5.33;5.33;;;;;19.59;69.08;101007.25;5109188;27;46400;-70
2022/10/17 02:43:18;;;;;;;;;8.67;4.67;;;;;19.58;69.20;101005.44;5097178;27;45456;-67
2022/10/17 02:45:45;;;;;;;;;9.33;7.00;;;;;19.61;69.22;101002.72;5108798;27;45380;-69
2022/10/17 02:48:32;;;;;;;;;8.00;6.33;;;;;19.61;69.26;101004.53;5097040;27;45608;-69
2022/10/17 02:51:10;;;;;;;;;6.00;5.67;;;;;19.47;69.05;100989.28;5106648;27;46212;-68
2022/10/17 02:54:00;;;;;;;;;6.00;6.00;;;;;19.63;69.22;101019.91;5093279;27;45533;-69
2022/10/17 02:56:30;;;;;;;;;8.67;7.33;;;;;19.63;68.93;101025.31;5109937;27;45421;-70
2022/10/17 02:58:58;;;;;;;;;7.33;5.00;;;;;19.60;68.62;101019.91;5118838;27;45008;-70
2022/10/17 03:01:25;;;;;;;;;6.33;5.00;;;;;19.63;68.86;101027.09;5114420;27;46180;-70
2022/10/17 03:03:50;;;;;;;;;7.33;6.00;;;;;19.65;69.06;101020.78;5112538;27;45292;-70
2022/10/17 03:06:15;;;;;;;;;7.00;5.00;;;;;19.66;68.92;101019.84;5123479;27;46468;-70
2022/10/17 03:08:41;;;;;;;;;5.00;5.00;;;;;19.57;69.16;101003.66;5122583;27;45043;-69
2022/10/17 03:11:06;;;;;;;;;7.00;6.00;;;;;19.67;69.10;101020.78;5115702;27;46585;-70
2022/10/17 03:13:32;;;;;;;;;5.67;5.67;;;;;19.68;68.97;101019.84;5118041;27;45102;-69
2022/10/17 03:15:57;;;;;;;;;5.67;5.67;;;;;19.61;69.13;101005.44;5115130;27;45193;-69
2022/10/17 03:18:23;;;;;;;;;9.33;8.33;;;;;19.66;69.27;101029.81;5121674;27;45349;-70
2022/10/17 03:20:50;;;;;;;;;7.00;7.00;;;;;19.65;69.26;101023.47;5124958;27;45013;-69
2022/10/17 03:23:16;;;;;;;;;6.00;5.67;;;;;19.61;69.37;101021.69;5118283;27;45561;-69
2022/10/17 03:25:41;;;;;;;;;7.67;6.33;;;;;19.46;69.19;101001.00;5115568;27;44991;-69
2022/10/17 03:28:08;;;;;;;;;7.67;6.67;;;;;19.49;69.44;101017.25;5115722;27;45343;-69
2022/10/17 03:30:33;;;;;;;;;10.00;6.00;;;;;19.49;69.55;101021.78;5111455;27;45708;-70
2022/10/17 03:32:59;;;;;;;;;10.00;6.67;;;;;19.41;69.22;101015.50;5115822;27;45613;-68
2022/10/17 03:35:25;;;;;;;;;6.00;6.00;;;;;19.51;69.24;101041.63;5092354;27;45395;-68
2022/10/17 03:37:50;;;;;;;;;4.33;4.33;;;;;19.46;69.44;101036.22;5116584;27;44995;-70
2022/10/17 03:40:16;;;;;;;;;6.67;6.67;;;;;19.50;69.42;101051.59;5099566;27;60728;-69
2022/10/17 03:42:41;;;;;;;;;3.33;3.33;;;;;19.11;69.04;101001.22;5104976;27;45622;-69
2022/10/17 03:45:07;;;;;;;;;7.67;7.00;;;;;19.48;69.32;101068.75;5098239;27;46850;-69
2022/10/17 03:47:32;;;;;;;;;9.33;7.00;;;;;19.15;69.04;101022.88;5106135;27;45166;-69
2022/10/17 03:49:58;;;;;;;;;9.33;4.67;;;;;19.42;68.81;101074.19;5107713;27;45306;-69
2022/10/17 03:52:23;;;;;;;;;10.00;9.00;;;;;19.12;68.92;101016.53;5088439;27;52956;-70
2022/10/17 03:54:50;;;;;;;;;6.00;5.67;;;;;19.35;68.86;101062.47;5109841;27;45352;-69
2022/10/17 03:57:16;;;;;;;;;7.67;7.00;;;;;19.49;68.87;101086.81;5112791;27;45173;-69
2022/10/17 03:59:41;;;;;;;;;6.33;6.33;;;;;19.37;68.88;101057.06;5117055;27;45602;-69
2022/10/17 04:02:06;;;;;;;;;7.00;7.00;;;;;19.42;68.85;101068.78;5113669;27;45134;-69
2022/10/17 04:04:32;;;;;;;;;6.33;6.33;;;;;19.31;68.77;101052.59;5112329;27;45326;-69
2022/10/17 04:06:57;;;;;;;;;8.00;5.00;;;;;19.53;68.63;101085.88;5103277;27;46019;-69
2022/10/17 04:09:22;;;;;;;;;6.67;6.67;;;;;19.49;67.99;101093.13;5116635;27;46918;-69
2022/10/17 04:11:47;;;;;;;;;5.67;5.00;;;;;19.49;68.22;101092.25;5118456;27;47557;-69
2022/10/17 04:14:13;;;;;;;;;8.33;7.00;;;;;19.36;68.63;101066.13;5123492;27;53305;-69
2022/10/17 04:16:38;;;;;;;;;6.33;6.33;;;;;19.49;68.17;101089.53;5103649;27;45155;-69
2022/10/17 04:19:04;;;;;;;;;9.00;6.67;;;;;19.48;68.07;101094.03;5121481;27;45555;-69
2022/10/17 04:21:29;;;;;;;;;8.33;6.00;;;;;19.15;67.55;101039.13;5112365;27;44949;-69
2022/10/17 04:23:56;;;;;;;;;7.00;5.67;;;;;19.44;67.75;101094.06;5116353;27;45275;-69
2022/10/17 04:26:22;;;;;;;;;4.67;3.67;;;;;19.46;67.68;101097.66;5115484;27;45253;-69
2022/10/17 04:28:47;;;;;;;;;5.00;5.00;;;;;19.45;67.24;101106.69;5110005;27;45266;-69
2022/10/17 04:31:13;;;;;;;;;7.00;5.33;;;;;19.47;67.44;101108.50;5101190;27;45249;-69
2022/10/17 04:33:39;;;;;;;;;8.00;7.67;;;;;19.34;67.26;101079.66;5120051;27;45795;-69
2022/10/17 04:36:07;;;;;;;;;8.67;7.00;;;;;19.42;67.29;101096.78;5118092;27;45047;-69
2022/10/17 04:38:33;;;;;;;;;10.00;6.67;;;;;19.48;67.23;101118.41;5107436;27;47441;-69
2022/10/17 04:41:02;;;;;;;;;7.00;7.00;;;;;19.48;66.94;101122.94;5125892;27;49773;-69
2022/10/17 04:43:29;;;;;;;;;8.00;6.33;;;;;19.32;66.95;101095.03;5123410;27;45272;-69
2022/10/17 04:45:56;;;;;;;;;7.00;5.00;;;;;19.48;66.64;101123.84;5121884;27;45205;-69
2022/10/17 04:48:21;;;;;;;;;7.67;6.00;;;;;19.47;66.43;101115.75;5117119;27;45619;-69
2022/10/17 04:50:58;;;;;;;;;6.00;4.33;;;;;19.44;66.50;101111.22;5113090;27;45045;-69
2022/10/17 04:53:24;;;;;;;;;6.00;5.00;;;;;19.42;66.21;101104.00;5115340;27;45643;-69
2022/10/17 04:55:49;;;;;;;;;5.67;5.67;;;;;19.15;66.43;101071.63;5124585;27;45251;-69
2022/10/17 04:58:15;;;;;;;;;6.00;5.00;;;;;19.50;66.10;101140.09;5129815;27;45458;-69
2022/10/17 05:00:40;;;;;;;;;12.00;8.67;;;;;19.43;66.20;101130.19;5118087;27;45377;-68
2022/10/17 05:03:06;;;;;;;;;7.00;5.33;;;;;19.42;66.15;101137.44;5122570;27;45164;-69
2022/10/17 05:05:31;;;;;;;;;5.00;5.00;;;;;19.32;66.00;101105.88;5090537;27;45119;-69
2022/10/17 05:07:57;;;;;;;;;7.33;7.00;;;;;19.47;66.11;101150.97;5114836;27;45219;-69
2022/10/17 05:10:22;;;;;;;;;6.00;6.00;;;;;19.46;65.92;101154.56;5113412;27;45170;-69
2022/10/17 05:12:48;;;;;;;;;6.33;5.00;;;;;19.45;66.29;101155.47;5128136;27;45117;-69
2022/10/17 05:15:14;;;;;;;;;4.33;4.00;;;;;19.29;66.42;101152.81;5120212;27;45114;-69
2022/10/17 05:17:40;;;;;;;;;14.33;10.67;;;;;19.41;66.93;101167.25;5123767;27;45103;-69
2022/10/17 05:20:06;;;;;;;;;8.33;8.33;;;;;19.37;67.13;101169.06;5109254;27;64853;-69
2022/10/17 05:22:31;;;;;;;;;8.33;6.00;;;;;19.36;67.22;101169.97;5112702;27;45082;-69
2022/10/17 05:24:56;;;;;;;;;6.33;6.33;;;;;19.38;67.59;101165.44;5112258;27;45262;-69
2022/10/17 05:27:22;;;;;;;;;5.33;5.33;;;;;19.34;67.66;101167.25;5109779;27;63006;-69
2022/10/17 05:29:47;;;;;;;;;6.00;6.00;;;;;19.38;67.69;101164.53;5107456;27;45317;-69
2022/10/17 05:32:14;;;;;;;;;8.33;7.00;;;;;19.37;67.68;101158.22;5109041;27;45147;-69
2022/10/17 05:34:39;;;;;;;;;8.00;6.67;;;;;19.35;67.85;101154.59;5114326;27;45014;-69
2022/10/17 05:37:04;;;;;;;;;6.00;6.00;;;;;19.39;67.88;101164.53;5112025;27;62883;-69
2022/10/17 05:39:30;;;;;;;;;9.00;7.00;;;;;19.29;68.17;101166.38;5109881;27;55189;-69
2022/10/17 05:41:55;;;;;;;;;6.33;6.00;;;;;19.30;67.88;101168.19;5113545;27;44784;-69
2022/10/17 05:44:20;;;;;;;;;9.33;8.33;;;;;19.40;67.88;101173.56;5111080;27;45022;-69
2022/10/17 05:46:48;;;;;;;;;6.67;6.67;;;;;19.32;68.16;101160.06;5114043;27;45524;-67
2022/10/17 05:49:13;;;;;;;;;11.00;9.67;;;;;19.41;67.79;101170.84;5118757;27;45195;-68
2022/10/17 05:51:39;;;;;;;;;11.67;8.33;;;;;19.41;68.32;101186.22;5125050;27;45100;-68
2022/10/17 05:54:06;;;;;;;;;21.67;18.67;;;;;19.22;68.78;101137.50;5122047;27;45239;-67
2022/10/17 05:56:32;;;;;;;;;6.67;6.00;;;;;19.30;68.24;101157.34;5111352;27;45896;-67
2022/10/17 05:58:57;;;;;;;;;8.67;7.67;;;;;19.17;68.59;101128.47;5116534;27;45207;-67
2022/10/17 06:01:23;;;;;;;;;21.67;20.00;;;;;19.29;68.69;101142.00;5116277;27;45134;-68
2022/10/17 06:03:48;;;;;;;;;9.00;9.00;;;;;19.15;68.82;101123.09;5128251;27;45115;-67
2022/10/17 06:06:15;;;;;;;;;11.00;10.67;;;;;19.26;69.00;101127.56;5119561;27;45689;-68
2022/10/17 06:08:40;;;;;;;;;12.67;9.00;;;;;19.24;68.78;101129.38;5128340;27;45247;-70
2022/10/17 06:11:06;;;;;;;;;11.33;8.00;;;;;19.05;68.67;101090.59;5113451;27;45158;-68
2022/10/17 06:13:31;;;;;;;;;8.33;7.67;;;;;19.27;68.98;101132.06;5123818;27;45208;-67
2022/10/17 06:15:57;;;;;;;;;12.00;9.33;;;;;19.18;69.49;101126.69;5118281;27;46331;-67
2022/10/17 06:18:22;;;;;;;;;12.00;10.00;;;;;19.15;69.38;101130.28;5122493;27;45295;-68
2022/10/17 06:20:48;;;;;;;;;8.67;7.00;;;;;19.30;69.39;101170.91;5115402;27;45253;-67
2022/10/17 06:23:13;;;;;;;;;10.33;8.33;;;;;19.22;70.41;101156.47;5131411;27;45211;-66
2022/10/17 06:25:39;;;;;;;;;11.67;8.33;;;;;19.32;71.25;101174.50;5121805;27;45048;-65
2022/10/17 06:28:04;;;;;;;;;10.00;7.33;;;;;19.37;70.69;101165.44;5123354;27;57111;-66
2022/10/17 06:30:30;;;;;;;;;9.67;5.67;;;;;19.48;70.88;101190.69;5114595;27;45342;-63
2022/10/17 06:32:55;;;;;;;;;10.00;8.00;;;;;19.51;69.78;101197.00;5108217;27;45705;-65
2022/10/17 06:35:21;;;;;;;;;8.33;6.67;;;;;19.50;70.16;101205.13;5107545;27;45866;-65
2022/10/17 06:37:46;;;;;;;;;10.00;10.00;;;;;19.55;70.66;101216.91;5104120;27;45453;-66
2022/10/17 06:40:13;;;;;;;;;11.33;9.67;;;;;19.41;69.41;101191.63;5108825;27;46678;-65
2022/10/17 06:42:40;;;;;;;;;10.67;9.00;;;;;19.48;69.50;101201.53;5108372;27;45613;-69
2022/10/17 06:45:06;;;;;;;;;8.00;7.67;;;;;19.53;68.78;101215.97;5106917;27;46464;-69
2022/10/17 06:47:32;;;;;;;;;10.33;9.00;;;;;19.28;69.38;101185.34;5112139;27;45128;-69
2022/10/17 06:49:57;;;;;;;;;17.33;15.33;;;;;19.45;69.52;101206.97;5084165;27;45417;-69
2022/10/17 06:52:23;;;;;;;;;8.00;6.67;;;;;19.36;69.31;101216.03;5091167;27;45536;-68
2022/10/17 06:54:50;;;;;;;;;25.67;23.33;;;;;19.31;69.19;101212.44;5086558;27;45814;-69
2022/10/17 06:57:15;;;;;;;;;12.67;9.33;;;;;19.44;69.40;101244.00;5091275;27;45448;-69
2022/10/17 06:59:41;;;;;;;;;13.00;11.33;;;;;19.47;69.25;101253.94;5096599;27;45355;-69
2022/10/17 07:02:08;;;;;;;;;25.67;22.00;;;;;19.37;69.39;101235.88;5090832;27;45498;-69
2022/10/17 07:04:34;;;;;;;;;8.33;7.33;;;;;19.41;69.68;101245.81;5104920;27;46385;-69
2022/10/17 07:07:01;;;;;;;;;11.33;6.67;;;;;19.39;69.47;101253.06;5087656;27;45468;-69
2022/10/17 07:09:27;;;;;;;;;11.33;9.33;;;;;19.48;69.91;101269.28;5088896;27;45486;-69
2022/10/17 07:11:53;;;;;;;;;13.33;12.00;;;;;19.24;69.31;101235.03;5089603;27;45525;-69
2022/10/17 07:14:18;;;;;;;;;12.33;9.00;;;;;19.39;69.73;101272.03;5092138;27;58228;-69
2022/10/17 07:16:44;;;;;;;;;11.00;6.00;;;;;19.45;69.61;101285.53;5094054;27;47574;-69
2022/10/17 07:19:09;;;;;;;;;6.67;6.67;;;;;19.48;69.38;101297.28;5090803;27;45366;-69
2022/10/17 07:21:35;;;;;;;;;14.33;12.33;;;;;19.50;69.68;101305.41;5097043;27;45644;-70
2022/10/17 07:24:00;;;;;;;;;6.00;6.00;;;;;19.17;69.57;101268.44;5096246;27;45564;-69
2022/10/17 07:26:25;;;;;;;;;19.00;15.67;;;;;19.48;70.03;101324.38;5090373;27;45558;-69
2022/10/17 07:28:53;;;;;;;;;12.00;10.50;;;;;19.27;69.69;101290.09;5090527;27;45606;-70
2022/10/17 07:31:21;;;;;;;;;9.67;9.67;;;;;19.52;69.57;101339.75;5082633;27;45530;-69
2022/10/17 07:33:47;;;;;;;;;5.67;5.67;;;;;19.52;69.58;101344.28;5100411;27;46958;-69
2022/10/17 07:36:13;;;;;;;;;8.67;7.00;;;;;19.52;69.45;101347.00;5110458;27;45133;-69
2022/10/17 07:38:38;;;;;;;;;10.00;6.33;;;;;19.40;69.45;101330.72;5092972;27;45492;-70
2022/10/17 07:41:06;;;;;;;;;8.00;8.00;;;;;19.54;69.73;101360.53;5082833;27;46226;-69
2022/10/17 07:43:31;;;;;;;;;10.00;9.67;;;;;19.57;69.49;101365.94;5086841;27;46414;-69
2022/10/17 07:45:56;;;;;;;;;13.33;8.33;;;;;19.47;69.58;101341.56;5083588;27;45714;-69
2022/10/17 07:48:23;;;;;;;;;9.00;8.67;;;;;19.41;69.62;101336.13;5083156;27;45533;-69
2022/10/17 07:50:49;;;;;;;;;8.33;7.00;;;;;19.66;69.58;101377.66;5091822;27;45689;-69
2022/10/17 07:53:15;;;;;;;;;9.00;6.00;;;;;19.50;69.28;101349.69;5087918;27;47500;-69
2022/10/17 07:55:41;;;;;;;;;10.33;8.00;;;;;19.71;69.21;101388.50;5087577;27;45966;-69
2022/10/17 07:58:08;;;;;;;;;13.67;8.67;;;;;19.61;69.19;101375.88;5087177;27;45487;-70
2022/10/17 08:00:33;;;;;;;;;11.33;7.33;;;;;19.74;69.25;101401.19;5083801;27;45627;-69
2022/10/17 08:02:59;;;;;;;;;15.33;13.00;;;;;19.72;69.02;101409.31;5068995;27;46905;-70
2022/10/17 08:05:24;;;;;;;;;23.00;18.67;;;;;19.71;69.45;101418.34;5093401;27;57324;-70
2022/10/17 08:07:50;;;;;;;;;12.67;8.67;;;;;19.52;69.26;101384.94;5085832;27;45616;-69
2022/10/17 08:10:15;;;;;;;;;15.33;12.00;;;;;19.59;69.89;101400.28;5084493;27;45902;-69
2022/10/17 08:12:41;;;;;;;;;9.67;9.00;;;;;19.68;69.55;101415.63;5097167;27;49500;-70
2022/10/17 08:15:08;;;;;;;;;16.67;15.33;;;;;19.58;69.96;101401.16;5088616;27;45561;-70
2022/10/17 08:17:35;;;;;;;;;11.00;10.67;;;;;19.29;69.99;101353.31;5087990;27;45620;-70
2022/10/17 08:20:01;;;;;;;;;10.33;9.33;;;;;19.73;69.84;101426.47;5088253;27;45558;-69
2022/10/17 08:22:26;;;;;;;;;10.67;9.67;;;;;19.73;69.96;101431.91;5089200;27;46570;-70
2022/10/17 08:24:51;;;;;;;;;9.00;7.00;;;;;19.73;69.89;101432.78;5083635;27;45508;-70
2022/10/17 08:27:22;;;;;;;;;10.00;9.00;;;;;19.72;69.76;101433.72;5078765;27;45571;-70
2022/10/17 08:29:51;;;;;;;;;10.67;8.00;;;;;19.79;69.90;101437.34;5092377;27;45618;-70
2022/10/17 08:32:17;;;;;;;;;6.00;6.00;;;;;19.81;69.49;101443.69;5084514;27;47164;-70
2022/10/17 08:34:44;;;;;;;;;11.67;6.67;;;;;19.84;69.73;101441.84;5080929;27;45552;-70
2022/10/17 08:37:12;;;;;;;;;11.00;9.33;;;;;19.69;69.58;101409.31;5084578;27;45575;-69
2022/10/17 08:39:37;;;;;;;;;10.67;9.67;;;;;19.89;69.45;101445.47;5086211;27;45465;-69
2022/10/17 08:42:31;;;;;;;;;9.67;9.67;;;;;19.92;69.45;101455.41;5082581;27;46261;-69
2022/10/17 08:45:15;;;;;;;;;11.67;8.33;;;;;19.55;69.42;101386.72;5079040;27;45581;-69
2022/10/17 08:47:45;;;;;;;;;12.00;10.67;;;;;19.86;69.15;101436.44;5080011;27;45575;-69
2022/10/17 08:50:20;;;;;;;;;11.00;10.33;;;;;20.03;68.99;101458.13;5083271;27;45571;-69
2022/10/17 08:52:53;;;;;;;;;13.33;9.67;;;;;20.05;69.17;101462.63;5079110;27;46431;-70
2022/10/17 08:55:41;;;;;;;;;10.33;7.67;;;;;19.94;69.27;101450.88;5084326;27;45558;-70
2022/10/17 08:58:13;;;;;;;;;10.00;7.00;;;;;20.09;69.16;101466.25;5087035;27;45540;-70
2022/10/17 09:00:45;;;;;;;;;5.33;5.00;;;;;19.91;69.13;101434.63;5091725;27;45288;-70
2022/10/17 09:03:31;;;;;;;;;10.67;7.00;;;;;19.97;69.24;101450.00;5085413;27;46298;-71
2022/10/17 09:06:13;;;;;;;;;9.00;6.33;;;;;20.08;69.29;101478.03;5087106;27;45507;-70
2022/10/17 09:08:40;;;;;;;;;15.00;9.00;;;;;20.13;69.08;101492.47;5084316;27;45611;-70
2022/10/17 09:11:37;;;;;;;;;8.67;7.00;;;;;20.14;69.38;101504.22;5067301;27;45639;-70
2022/10/17 09:14:02;;;;;;;;;10.33;8.00;;;;;20.18;69.36;101506.03;5083770;27;45449;-70
2022/10/17 09:16:45;;;;;;;;;9.33;7.00;;;;;20.13;69.34;101499.69;5088885;27;45514;-70
2022/10/17 09:19:22;;;;;;;;;7.00;6.00;;;;;20.21;69.59;101511.44;5107303;27;45198;-70
2022/10/17 09:22:14;;;;;;;;;8.67;6.00;;;;;20.11;69.64;101504.22;5101067;27;45032;-68
2022/10/17 09:24:53;;;;;;;;;7.67;6.67;;;;;20.19;70.23;101535.84;5103450;27;45294;-68
2022/10/17 09:27:46;;;;;;;;;6.67;6.67;;;;;20.19;70.17;101534.97;5101441;27;45773;-68
2022/10/17 09:30:18;;;;;;;;;9.33;5.00;;;;;20.19;70.64;101543.09;5100235;27;45398;-69
2022/10/17 09:32:46;;;;;;;;;9.00;9.00;;;;;20.17;70.72;101545.81;5110042;27;45016;-68
2022/10/17 09:35:13;;;;;;;;;9.00;7.00;;;;;20.19;71.21;101545.81;5101550;27;45422;-68
2022/10/17 09:37:38;;;;;;;;;7.00;6.00;;;;;20.14;71.09;101551.25;5109729;27;45292;-69
2022/10/17 09:40:10;;;;;;;;;8.67;8.67;;;;;19.99;71.53;101534.97;5099687;27;45469;-68
2022/10/17 09:42:35;;;;;;;;;14.00;8.33;;;;;20.16;71.98;101557.59;5100030;27;45525;-68
2022/10/17 09:45:09;;;;;;;;;10.00;7.67;;;;;20.15;72.03;101571.16;5103289;27;45350;-69
2022/10/17 09:48:16;;;;;;;;;12.33;8.67;;;;;20.12;72.60;101576.59;5110533;27;45443;-68
2022/10/17 09:50:44;;;;;;;;;11.00;10.00;;;;;19.95;73.23;101544.03;5088219;27;45342;-69
2022/10/17 09:53:24;;;;;;;;;8.67;7.67;;;;;20.12;73.66;101566.63;5097014;27;45485;-68
2022/10/17 09:55:57;;;;;;;;;13.33;10.33;;;;;20.11;73.76;101574.75;5114629;27;45484;-67
2022/10/17 09:58:38;;;;;;;;;11.33;11.33;;;;;20.13;74.19;101567.50;5129759;27;45258;-67
2022/10/17 10:01:21;;;;;;;;;8.00;8.00;;;;;20.03;73.98;101553.06;5094334;27;45165;-67
2022/10/17 10:04:06;;;;;;;;;15.33;11.33;;;;;19.82;74.34;101503.34;5123384;27;44914;-67
2022/10/17 10:06:32;;;;;;;;;12.00;10.67;;;;;20.23;74.53;101569.34;5110309;27;45161;-67
2022/10/17 10:08:58;;;;;;;;;12.00;8.67;;;;;20.24;74.32;101576.56;5112778;27;45019;-67
2022/10/17 10:11:44;;;;;;;;;9.33;9.33;;;;;20.23;74.01;101577.50;5115631;27;45452;-69
2022/10/17 10:14:21;;;;;;;;;12.33;8.67;;;;;20.23;74.19;101570.25;5094521;27;45164;-69
2022/10/17 10:16:48;;;;;;;;;14.33;12.00;;;;;20.24;74.20;101569.34;5102185;27;45508;-69
2022/10/17 10:19:34;;;;;;;;;15.00;13.00;;;;;20.21;74.55;101571.13;5105809;27;45172;-69
2022/10/17 10:22:00;;;;;;;;;13.00;10.33;;;;;20.25;74.64;101579.28;5102345;27;45195;-68
2022/10/17 10:24:27;;;;;;;;;13.67;10.33;;;;;20.16;74.66;101572.94;5107102;27;45211;-68
2022/10/17 10:26:57;;;;;;;;;14.00;14.00;;;;;20.26;74.60;101596.50;5105949;27;45321;-68
2022/10/17 10:29:37;;;;;;;;;18.00;12.33;;;;;20.28;74.82;101601.88;5109192;27;45126;-69
2022/10/17 10:32:11;;;;;;;;;10.00;10.00;;;;;20.26;74.08;101612.78;5108979;27;45159;-69
2022/10/17 10:34:49;;;;;;;;;14.00;11.00;;;;;20.24;74.79;101622.69;5102048;27;45251;-68
2022/10/17 10:37:25;;;;;;;;;12.00;9.67;;;;;20.21;74.53;101636.25;5113759;27;45671;-69
2022/10/17 10:39:59;;;;;;;;;11.33;9.67;;;;;20.05;75.22;101617.25;5132132;27;45189;-69
2022/10/17 10:42:38;;;;;;;;;10.33;10.33;;;;;20.19;75.43;101630.81;5119779;27;45480;-68
2022/10/17 10:45:14;;;;;;;;;16.67;14.00;;;;;20.25;75.65;101638.09;5111824;27;45445;-68
2022/10/17 10:47:50;;;;;;;;;17.67;15.67;;;;;20.13;75.98;101610.94;5113107;27;45258;-69
2022/10/17 10:50:35;;;;;;;;;11.00;10.33;;;;;20.30;75.91;101636.28;5113151;27;45163;-69
2022/10/17 10:53:29;;;;;;;;;14.00;12.33;;;;;20.33;75.89;101652.56;5105342;27;45082;-69
2022/10/17 10:56:07;;;;;;;;;18.00;14.00;;;;;20.34;75.94;101665.25;5111710;27;45380;-68
2022/10/17 10:58:51;;;;;;;;;19.00;17.00;;;;;20.35;75.83;101666.13;5102977;27;47210;-68
2022/10/17 11:01:30;;;;;;;;;20.67;14.67;;;;;20.34;75.97;101670.66;5102526;27;44904;-68
2022/10/17 11:04:33;;;;;;;;;23.33;13.00;;;;;20.33;76.17;101673.38;5104583;27;46163;-68
2022/10/17 11:07:09;;;;;;;;;21.67;17.33;;;;;20.34;76.31;101669.75;5106786;27;44989;-68
2022/10/17 11:09:43;;;;;;;;;19.67;14.67;;;;;20.04;75.73;101596.44;5106862;27;48011;-68
2022/10/17 11:12:15;;;;;;;;;19.67;17.33;;;;;20.32;76.21;101633.56;5105530;27;45170;-69
2022/10/17 11:15:17;;;;;;;;;20.00;17.67;;;;;20.35;76.55;101629.03;5099972;27;45193;-68
2022/10/17 11:18:03;;;;;;;;;17.33;17.33;;;;;20.33;76.52;101639.00;5085055;27;45304;-68
2022/10/17 11:21:13;;;;;;;;;20.00;17.00;;;;;20.33;77.01;101654.38;5106580;27;45367;-68
2022/10/17 11:23:46;;;;;;;;;21.00;18.00;;;;;20.32;76.95;101645.31;5100895;27;45091;-68
2022/10/17 11:26:24;;;;;;;;;18.33;16.33;;;;;20.28;76.79;101653.44;5112813;27;45205;-69
2022/10/17 11:28:51;;;;;;;;;16.33;12.00;;;;;20.40;76.65;101676.06;5106514;27;45234;-68
2022/10/17 11:31:18;;;;;;;;;17.00;15.00;;;;;20.34;76.79;101676.09;5109631;27;45619;-68
2022/10/17 11:33:48;;;;;;;;;17.00;15.67;;;;;20.27;76.49;101657.97;5101992;27;45193;-68
2022/10/17 11:36:16;;;;;;;;;17.33;15.67;;;;;20.31;76.52;101662.53;5100724;27;45062;-68